sensor_id;sensor_type;location;lat;lon;timestamp;temperature;humidity
52656;SHT85;35474;51.032;6.998;2022-10-23T00:00:33;12.63;92.50
52656;SHT85;35474;51.032;6.998;2022-10-23T00:03:07;12.44;92.44
52656;SHT85;35474;51.032;6.998;2022-10-23T00:05:37;12.30;92.60
52656;SHT85;35474;51.032;6.998;2022-10-23T00:08:06;12.44;92.76
52656;SHT85;35474;51.032;6.998;2022-10-23T00:10:33;12.46;92.70
52656;SHT85;35474;51.032;6.998;2022-10-23T00:13:00;12.26;92.77
52656;SHT85;35474;51.032;6.998;2022-10-23T00:15:27;12.13;92.66
52656;SHT85;35474;51.032;6.998;2022-10-23T00:17:54;12.13;92.68
52656;SHT85;35474;51.032;6.998;2022-10-23T00:20:21;12.02;92.65
52656;SHT85;35474;51.032;6.998;2022-10-23T00:22:47;11.92;92.74
52656;SHT85;35474;51.032;6.998;2022-10-23T00:25:14;11.89;92.83
52656;SHT85;35474;51.032;6.998;2022-10-23T00:27:41;11.89;93.18
52656;SHT85;35474;51.032;6.998;2022-10-23T00:30:09;11.99;93.33
52656;SHT85;35474;51.032;6.998;2022-10-23T00:32:36;12.09;93.55
52656;SHT85;35474;51.032;6.998;2022-10-23T00:35:03;11.93;93.29
52656;SHT85;35474;51.032;6.998;2022-10-23T00:37:30;11.82;93.24
52656;SHT85;35474;51.032;6.998;2022-10-23T00:39:57;11.79;93.46
52656;SHT85;35474;51.032;6.998;2022-10-23T00:42:24;12.05;93.61
52656;SHT85;35474;51.032;6.998;2022-10-23T00:47:17;12.09;93.55
52656;SHT85;35474;51.032;6.998;2022-10-23T00:49:43;12.06;93.62
52656;SHT85;35474;51.032;6.998;2022-10-23T00:52:11;11.90;93.53
52656;SHT85;35474;51.032;6.998;2022-10-23T00:54:39;11.92;93.74
52656;SHT85;35474;51.032;6.998;2022-10-23T00:57:12;11.74;93.54
52656;SHT85;35474;51.032;6.998;2022-10-23T00:59:40;11.78;93.54
52656;SHT85;35474;51.032;6.998;2022-10-23T01:02:06;11.63;93.57
52656;SHT85;35474;51.032;6.998;2022-10-23T01:04:33;11.69;93.66
52656;SHT85;35474;51.032;6.998;2022-10-23T01:07:03;11.82;93.62
52656;SHT85;35474;51.032;6.998;2022-10-23T01:09:55;11.74;93.75
52656;SHT85;35474;51.032;6.998;2022-10-23T01:17:43;11.99;93.92
52656;SHT85;35474;51.032;6.998;2022-10-23T01:28:31;12.23;93.74
52656;SHT85;35474;51.032;6.998;2022-10-23T01:31:01;12.36;93.45
52656;SHT85;35474;51.032;6.998;2022-10-23T01:33:38;12.02;93.39
52656;SHT85;35474;51.032;6.998;2022-10-23T01:36:10;11.97;93.39
52656;SHT85;35474;51.032;6.998;2022-10-23T01:38:52;12.00;93.49
52656;SHT85;35474;51.032;6.998;2022-10-23T01:44:03;11.92;93.53
52656;SHT85;35474;51.032;6.998;2022-10-23T01:46:36;12.18;93.31
52656;SHT85;35474;51.032;6.998;2022-10-23T01:49:03;12.20;93.62
52656;SHT85;35474;51.032;6.998;2022-10-23T01:51:31;12.21;93.72
52656;SHT85;35474;51.032;6.998;2022-10-23T01:54:03;12.21;93.73
52656;SHT85;35474;51.032;6.998;2022-10-23T01:56:32;12.21;93.56
52656;SHT85;35474;51.032;6.998;2022-10-23T01:59:04;12.27;93.27
52656;SHT85;35474;51.032;6.998;2022-10-23T02:01:35;12.02;93.12
52656;SHT85;35474;51.032;6.998;2022-10-23T02:04:07;11.92;93.31
52656;SHT85;35474;51.032;6.998;2022-10-23T02:06:37;12.21;93.46
52656;SHT85;35474;51.032;6.998;2022-10-23T02:09:04;12.02;93.38
52656;SHT85;35474;51.032;6.998;2022-10-23T02:11:34;12.00;93.34
52656;SHT85;35474;51.032;6.998;2022-10-23T02:14:10;12.00;93.56
52656;SHT85;35474;51.032;6.998;2022-10-23T02:16:52;12.09;93.32
52656;SHT85;35474;51.032;6.998;2022-10-23T02:19:30;12.26;93.37
52656;SHT85;35474;51.032;6.998;2022-10-23T02:22:08;12.23;93.17
52656;SHT85;35474;51.032;6.998;2022-10-23T02:24:38;12.36;93.24
52656;SHT85;35474;51.032;6.998;2022-10-23T02:27:20;12.24;93.03
52656;SHT85;35474;51.032;6.998;2022-10-23T02:29:52;12.26;92.94
52656;SHT85;35474;51.032;6.998;2022-10-23T02:32:25;12.33;93.12
52656;SHT85;35474;51.032;6.998;2022-10-23T02:34:53;12.38;93.14
52656;SHT85;35474;51.032;6.998;2022-10-23T02:37:21;12.40;92.79
52656;SHT85;35474;51.032;6.998;2022-10-23T02:39:52;12.30;92.63
52656;SHT85;35474;51.032;6.998;2022-10-23T02:42:27;12.31;92.43
52656;SHT85;35474;51.032;6.998;2022-10-23T02:50:26;12.28;92.59
52656;SHT85;35474;51.032;6.998;2022-10-23T02:53:07;12.33;92.90
52656;SHT85;35474;51.032;6.998;2022-10-23T03:01:16;12.48;92.81
52656;SHT85;35474;51.032;6.998;2022-10-23T03:03:54;12.55;92.69
52656;SHT85;35474;51.032;6.998;2022-10-23T03:06:23;12.61;92.55
52656;SHT85;35474;51.032;6.998;2022-10-23T03:11:24;12.72;92.38
52656;SHT85;35474;51.032;6.998;2022-10-23T03:13:51;12.58;92.29
52656;SHT85;35474;51.032;6.998;2022-10-23T03:16:17;12.58;92.58
52656;SHT85;35474;51.032;6.998;2022-10-23T03:18:44;12.51;91.98
52656;SHT85;35474;51.032;6.998;2022-10-23T03:21:11;12.44;92.33
52656;SHT85;35474;51.032;6.998;2022-10-23T03:23:37;12.44;92.49
52656;SHT85;35474;51.032;6.998;2022-10-23T03:26:03;12.47;92.61
52656;SHT85;35474;51.032;6.998;2022-10-23T03:28:30;12.47;92.73
52656;SHT85;35474;51.032;6.998;2022-10-23T03:30:57;12.51;93.07
52656;SHT85;35474;51.032;6.998;2022-10-23T03:33:23;12.54;92.98
52656;SHT85;35474;51.032;6.998;2022-10-23T03:35:49;12.57;92.93
52656;SHT85;35474;51.032;6.998;2022-10-23T03:38:16;12.53;92.99
52656;SHT85;35474;51.032;6.998;2022-10-23T03:40:42;12.50;93.04
52656;SHT85;35474;51.032;6.998;2022-10-23T03:43:09;12.63;93.25
52656;SHT85;35474;51.032;6.998;2022-10-23T03:45:35;12.69;93.01
52656;SHT85;35474;51.032;6.998;2022-10-23T03:48:06;12.68;93.17
52656;SHT85;35474;51.032;6.998;2022-10-23T03:50:33;12.57;93.37
52656;SHT85;35474;51.032;6.998;2022-10-23T03:53:00;12.48;93.69
52656;SHT85;35474;51.032;6.998;2022-10-23T03:55:27;12.54;93.92
52656;SHT85;35474;51.032;6.998;2022-10-23T03:57:54;12.64;93.86
52656;SHT85;35474;51.032;6.998;2022-10-23T04:00:21;12.55;93.84
52656;SHT85;35474;51.032;6.998;2022-10-23T04:02:47;12.65;93.80
52656;SHT85;35474;51.032;6.998;2022-10-23T04:05:14;12.64;93.86
52656;SHT85;35474;51.032;6.998;2022-10-23T04:07:40;12.64;93.84
52656;SHT85;35474;51.032;6.998;2022-10-23T04:10:07;12.69;93.76
52656;SHT85;35474;51.032;6.998;2022-10-23T04:12:34;12.65;93.53
52656;SHT85;35474;51.032;6.998;2022-10-23T04:15:00;12.55;93.15
52656;SHT85;35474;51.032;6.998;2022-10-23T04:17:27;12.41;93.20
52656;SHT85;35474;51.032;6.998;2022-10-23T04:19:58;12.51;93.43
52656;SHT85;35474;51.032;6.998;2022-10-23T04:22:25;12.72;93.24
52656;SHT85;35474;51.032;6.998;2022-10-23T04:24:53;12.63;93.44
52656;SHT85;35474;51.032;6.998;2022-10-23T04:27:20;12.61;93.57
52656;SHT85;35474;51.032;6.998;2022-10-23T04:29:47;12.68;93.44
52656;SHT85;35474;51.032;6.998;2022-10-23T04:32:14;12.48;93.39
52656;SHT85;35474;51.032;6.998;2022-10-23T04:34:40;12.63;93.59
52656;SHT85;35474;51.032;6.998;2022-10-23T04:37:08;12.65;93.54
52656;SHT85;35474;51.032;6.998;2022-10-23T04:39:34;12.54;93.64
52656;SHT85;35474;51.032;6.998;2022-10-23T04:42:01;12.57;93.72
52656;SHT85;35474;51.032;6.998;2022-10-23T04:44:28;12.48;93.42
52656;SHT85;35474;51.032;6.998;2022-10-23T04:46:54;12.50;93.56
52656;SHT85;35474;51.032;6.998;2022-10-23T04:49:20;12.63;93.93
52656;SHT85;35474;51.032;6.998;2022-10-23T04:51:47;12.65;94.07
52656;SHT85;35474;51.032;6.998;2022-10-23T04:54:13;12.72;94.06
52656;SHT85;35474;51.032;6.998;2022-10-23T04:56:40;12.63;93.76
52656;SHT85;35474;51.032;6.998;2022-10-23T04:59:07;12.71;94.12
52656;SHT85;35474;51.032;6.998;2022-10-23T05:01:33;12.74;94.12
52656;SHT85;35474;51.032;6.998;2022-10-23T05:04:00;12.72;94.03
52656;SHT85;35474;51.032;6.998;2022-10-23T05:06:27;12.72;94.01
52656;SHT85;35474;51.032;6.998;2022-10-23T05:08:53;12.68;93.83
52656;SHT85;35474;51.032;6.998;2022-10-23T05:11:21;12.67;93.90
52656;SHT85;35474;51.032;6.998;2022-10-23T05:13:47;12.74;94.04
52656;SHT85;35474;51.032;6.998;2022-10-23T05:16:21;12.69;93.88
52656;SHT85;35474;51.032;6.998;2022-10-23T05:19:11;12.88;93.84
52656;SHT85;35474;51.032;6.998;2022-10-23T05:21:49;12.85;93.72
52656;SHT85;35474;51.032;6.998;2022-10-23T05:24:21;12.89;93.72
52656;SHT85;35474;51.032;6.998;2022-10-23T05:26:48;12.89;93.51
52656;SHT85;35474;51.032;6.998;2022-10-23T05:29:18;12.86;93.29
52656;SHT85;35474;51.032;6.998;2022-10-23T05:31:45;12.72;93.16
52656;SHT85;35474;51.032;6.998;2022-10-23T05:34:16;12.63;93.14
52656;SHT85;35474;51.032;6.998;2022-10-23T05:36:45;12.78;93.58
52656;SHT85;35474;51.032;6.998;2022-10-23T05:39:12;12.86;93.53
52656;SHT85;35474;51.032;6.998;2022-10-23T05:41:38;12.91;93.30
52656;SHT85;35474;51.032;6.998;2022-10-23T05:44:05;12.98;93.12
52656;SHT85;35474;51.032;6.998;2022-10-23T05:46:32;13.02;92.84
52656;SHT85;35474;51.032;6.998;2022-10-23T05:48:59;13.03;92.66
52656;SHT85;35474;51.032;6.998;2022-10-23T05:51:25;13.06;92.64
52656;SHT85;35474;51.032;6.998;2022-10-23T05:53:53;13.12;92.58
52656;SHT85;35474;51.032;6.998;2022-10-23T05:56:20;13.11;92.26
52656;SHT85;35474;51.032;6.998;2022-10-23T05:58:47;13.11;92.14
52656;SHT85;35474;51.032;6.998;2022-10-23T06:01:14;13.11;92.17
52656;SHT85;35474;51.032;6.998;2022-10-23T06:03:41;13.11;92.15
52656;SHT85;35474;51.032;6.998;2022-10-23T06:06:07;13.12;92.14
52656;SHT85;35474;51.032;6.998;2022-10-23T06:08:34;13.13;92.05
52656;SHT85;35474;51.032;6.998;2022-10-23T06:11:18;13.11;91.83
52656;SHT85;35474;51.032;6.998;2022-10-23T06:13:45;13.15;91.87
52656;SHT85;35474;51.032;6.998;2022-10-23T06:16:14;13.27;91.50
52656;SHT85;35474;51.032;6.998;2022-10-23T06:18:43;13.32;91.22
52656;SHT85;35474;51.032;6.998;2022-10-23T06:21:11;13.33;91.14
52656;SHT85;35474;51.032;6.998;2022-10-23T06:23:38;13.36;91.09
52656;SHT85;35474;51.032;6.998;2022-10-23T06:26:07;13.39;90.83
52656;SHT85;35474;51.032;6.998;2022-10-23T06:28:34;13.46;90.46
52656;SHT85;35474;51.032;6.998;2022-10-23T06:32:33;13.54;90.10
52656;SHT85;35474;51.032;6.998;2022-10-23T06:34:59;13.48;90.06
52656;SHT85;35474;51.032;6.998;2022-10-23T06:37:26;13.48;90.01
52656;SHT85;35474;51.032;6.998;2022-10-23T06:39:52;13.53;89.91
52656;SHT85;35474;51.032;6.998;2022-10-23T06:42:19;13.54;89.82
52656;SHT85;35474;51.032;6.998;2022-10-23T06:44:45;13.58;89.69
52656;SHT85;35474;51.032;6.998;2022-10-23T06:47:13;13.60;89.53
52656;SHT85;35474;51.032;6.998;2022-10-23T06:49:40;13.67;89.54
52656;SHT85;35474;51.032;6.998;2022-10-23T06:52:06;13.74;89.17
52656;SHT85;35474;51.032;6.998;2022-10-23T06:54:48;13.87;88.97
52656;SHT85;35474;51.032;6.998;2022-10-23T06:57:14;14.11;88.00
52656;SHT85;35474;51.032;6.998;2022-10-23T06:59:41;14.11;87.59
52656;SHT85;35474;51.032;6.998;2022-10-23T07:02:08;14.09;87.62
52656;SHT85;35474;51.032;6.998;2022-10-23T07:04:34;14.05;87.83
52656;SHT85;35474;51.032;6.998;2022-10-23T07:07:01;14.01;87.90
52656;SHT85;35474;51.032;6.998;2022-10-23T07:09:27;14.05;87.76
52656;SHT85;35474;51.032;6.998;2022-10-23T07:11:54;14.04;87.92
52656;SHT85;35474;51.032;6.998;2022-10-23T07:14:20;14.11;87.64
52656;SHT85;35474;51.032;6.998;2022-10-23T07:16:47;14.16;87.55
52656;SHT85;35474;51.032;6.998;2022-10-23T07:19:13;14.12;87.46
52656;SHT85;35474;51.032;6.998;2022-10-23T07:21:40;14.22;87.27
52656;SHT85;35474;51.032;6.998;2022-10-23T07:24:06;14.28;86.80
52656;SHT85;35474;51.032;6.998;2022-10-23T07:26:33;14.35;86.81
52656;SHT85;35474;51.032;6.998;2022-10-23T07:28:59;14.42;86.55
52656;SHT85;35474;51.032;6.998;2022-10-23T07:31:26;14.56;86.08
52656;SHT85;35474;51.032;6.998;2022-10-23T07:33:53;14.73;85.47
52656;SHT85;35474;51.032;6.998;2022-10-23T07:36:20;14.91;84.62
52656;SHT85;35474;51.032;6.998;2022-10-23T07:38:46;15.11;84.24
52656;SHT85;35474;51.032;6.998;2022-10-23T07:41:13;15.14;83.62
52656;SHT85;35474;51.032;6.998;2022-10-23T07:43:40;15.25;83.12
52656;SHT85;35474;51.032;6.998;2022-10-23T07:46:09;15.45;82.74
52656;SHT85;35474;51.032;6.998;2022-10-23T07:48:36;15.62;81.94
52656;SHT85;35474;51.032;6.998;2022-10-23T07:51:04;15.85;80.92
52656;SHT85;35474;51.032;6.998;2022-10-23T07:53:33;16.25;79.52
52656;SHT85;35474;51.032;6.998;2022-10-23T07:56:01;16.62;78.68
52656;SHT85;35474;51.032;6.998;2022-10-23T07:58:29;16.58;77.84
52656;SHT85;35474;51.032;6.998;2022-10-23T08:00:58;16.75;77.46
52656;SHT85;35474;51.032;6.998;2022-10-23T08:03:27;16.99;75.94
52656;SHT85;35474;51.032;6.998;2022-10-23T08:05:55;17.07;75.37
52656;SHT85;35474;51.032;6.998;2022-10-23T08:08:23;17.27;74.43
52656;SHT85;35474;51.032;6.998;2022-10-23T08:10:51;17.07;75.26
52656;SHT85;35474;51.032;6.998;2022-10-23T08:13:20;17.13;74.63
52656;SHT85;35474;51.032;6.998;2022-10-23T08:15:48;17.11;74.85
52656;SHT85;35474;51.032;6.998;2022-10-23T08:18:16;17.30;74.17
52656;SHT85;35474;51.032;6.998;2022-10-23T08:20:45;17.34;74.13
52656;SHT85;35474;51.032;6.998;2022-10-23T08:23:14;17.20;74.43
52656;SHT85;35474;51.032;6.998;2022-10-23T08:25:43;16.76;75.39
52656;SHT85;35474;51.032;6.998;2022-10-23T08:28:11;17.07;74.84
52656;SHT85;35474;51.032;6.998;2022-10-23T08:30:38;17.19;74.02
52656;SHT85;35474;51.032;6.998;2022-10-23T08:33:04;17.30;74.20
52656;SHT85;35474;51.032;6.998;2022-10-23T08:35:36;17.06;74.83
52656;SHT85;35474;51.032;6.998;2022-10-23T08:38:03;17.31;74.45
52656;SHT85;35474;51.032;6.998;2022-10-23T08:40:31;17.19;74.44
52656;SHT85;35474;51.032;6.998;2022-10-23T08:43:05;17.07;74.61
52656;SHT85;35474;51.032;6.998;2022-10-23T08:45:46;16.92;74.81
52656;SHT85;35474;51.032;6.998;2022-10-23T08:50:56;16.85;74.91
52656;SHT85;35474;51.032;6.998;2022-10-23T08:53:42;16.85;75.10
52656;SHT85;35474;51.032;6.998;2022-10-23T08:56:32;16.88;75.11
52656;SHT85;35474;51.032;6.998;2022-10-23T08:59:12;16.82;75.11
52656;SHT85;35474;51.032;6.998;2022-10-23T09:04:19;17.07;74.58
52656;SHT85;35474;51.032;6.998;2022-10-23T09:07:08;17.14;74.08
52656;SHT85;35474;51.032;6.998;2022-10-23T09:10:02;17.44;73.05
52656;SHT85;35474;51.032;6.998;2022-10-23T09:12:50;18.23;70.75
52656;SHT85;35474;51.032;6.998;2022-10-23T09:17:57;18.40;70.17
52656;SHT85;35474;51.032;6.998;2022-10-23T09:20:30;18.95;68.84
52656;SHT85;35474;51.032;6.998;2022-10-23T09:23:03;19.49;67.27
52656;SHT85;35474;51.032;6.998;2022-10-23T09:25:38;18.71;68.48
52656;SHT85;35474;51.032;6.998;2022-10-23T09:28:05;18.27;70.30
52656;SHT85;35474;51.032;6.998;2022-10-23T09:30:39;18.74;69.09
52656;SHT85;35474;51.032;6.998;2022-10-23T09:33:14;18.20;69.96
52656;SHT85;35474;51.032;6.998;2022-10-23T09:35:57;18.16;70.99
52656;SHT85;35474;51.032;6.998;2022-10-23T09:38:33;18.39;70.46
52656;SHT85;35474;51.032;6.998;2022-10-23T09:43:38;19.05;68.73
52656;SHT85;35474;51.032;6.998;2022-10-23T09:46:05;18.68;69.10
52656;SHT85;35474;51.032;6.998;2022-10-23T09:48:33;18.43;69.62
52656;SHT85;35474;51.032;6.998;2022-10-23T09:51:00;18.70;69.51
52656;SHT85;35474;51.032;6.998;2022-10-23T09:53:36;18.58;70.11
52656;SHT85;35474;51.032;6.998;2022-10-23T09:58:57;18.99;68.75
52656;SHT85;35474;51.032;6.998;2022-10-23T10:01:30;19.06;68.76
52656;SHT85;35474;51.032;6.998;2022-10-23T10:03:58;18.67;69.57
52656;SHT85;35474;51.032;6.998;2022-10-23T10:06:26;18.41;70.89
52656;SHT85;35474;51.032;6.998;2022-10-23T10:09:02;18.56;70.46
52656;SHT85;35474;51.032;6.998;2022-10-23T10:11:43;18.54;70.67
52656;SHT85;35474;51.032;6.998;2022-10-23T10:16:53;18.46;70.63
52656;SHT85;35474;51.032;6.998;2022-10-23T10:22:10;18.64;70.44
52656;SHT85;35474;51.032;6.998;2022-10-23T10:30:26;18.46;71.07
52656;SHT85;35474;51.032;6.998;2022-10-23T10:33:05;18.43;71.28
52656;SHT85;35474;51.032;6.998;2022-10-23T10:35:45;18.43;71.02
52656;SHT85;35474;51.032;6.998;2022-10-23T10:40:46;18.68;70.87
52656;SHT85;35474;51.032;6.998;2022-10-23T10:43:30;18.54;70.62
52656;SHT85;35474;51.032;6.998;2022-10-23T10:48:48;18.56;70.91
52656;SHT85;35474;51.032;6.998;2022-10-23T10:51:29;18.60;70.93
52656;SHT85;35474;51.032;6.998;2022-10-23T10:56:35;18.66;70.70
52656;SHT85;35474;51.032;6.998;2022-10-23T10:59:11;18.63;70.58
52656;SHT85;35474;51.032;6.998;2022-10-23T11:04:27;18.50;70.31
52656;SHT85;35474;51.032;6.998;2022-10-23T11:07:04;18.54;69.91
52656;SHT85;35474;51.032;6.998;2022-10-23T11:09:34;18.66;69.47
52656;SHT85;35474;51.032;6.998;2022-10-23T11:12:01;18.53;69.60
52656;SHT85;35474;51.032;6.998;2022-10-23T11:14:28;18.61;69.44
52656;SHT85;35474;51.032;6.998;2022-10-23T11:19:48;18.46;70.24
52656;SHT85;35474;51.032;6.998;2022-10-23T11:34:32;17.46;74.56
52656;SHT85;35474;51.032;6.998;2022-10-23T11:37:09;17.27;75.81
52656;SHT85;35474;51.032;6.998;2022-10-23T11:39:52;17.44;75.02
52656;SHT85;35474;51.032;6.998;2022-10-23T11:42:28;17.55;74.91
52656;SHT85;35474;51.032;6.998;2022-10-23T11:44:57;17.55;74.64
52656;SHT85;35474;51.032;6.998;2022-10-23T11:52:36;17.91;73.50
52656;SHT85;35474;51.032;6.998;2022-10-23T11:55:38;18.44;71.75
52656;SHT85;35474;51.032;6.998;2022-10-23T12:00:48;18.75;69.76
52656;SHT85;35474;51.032;6.998;2022-10-23T12:03:25;18.71;70.23
52656;SHT85;35474;51.032;6.998;2022-10-23T12:05:59;18.71;70.45
52656;SHT85;35474;51.032;6.998;2022-10-23T12:08:30;19.08;69.52
52656;SHT85;35474;51.032;6.998;2022-10-23T12:11:00;19.25;68.96
52656;SHT85;35474;51.032;6.998;2022-10-23T12:16:07;19.08;69.09
52656;SHT85;35474;51.032;6.998;2022-10-23T12:18:43;19.23;69.16
52656;SHT85;35474;51.032;6.998;2022-10-23T12:21:14;19.06;69.28
52656;SHT85;35474;51.032;6.998;2022-10-23T12:26:19;18.95;69.07
52656;SHT85;35474;51.032;6.998;2022-10-23T12:28:50;18.89;69.65
52656;SHT85;35474;51.032;6.998;2022-10-23T12:33:56;19.25;69.14
52656;SHT85;35474;51.032;6.998;2022-10-23T12:39:32;19.28;68.45
52656;SHT85;35474;51.032;6.998;2022-10-23T12:42:14;19.08;68.97
52656;SHT85;35474;51.032;6.998;2022-10-23T12:44:55;19.11;69.38
52656;SHT85;35474;51.032;6.998;2022-10-23T12:47:23;19.12;69.23
52656;SHT85;35474;51.032;6.998;2022-10-23T12:49:50;19.05;69.56
52656;SHT85;35474;51.032;6.998;2022-10-23T12:52:18;18.99;69.63
52656;SHT85;35474;51.032;6.998;2022-10-23T12:54:46;19.02;69.69
52656;SHT85;35474;51.032;6.998;2022-10-23T12:57:20;18.92;69.86
52656;SHT85;35474;51.032;6.998;2022-10-23T13:00:02;19.08;69.77
52656;SHT85;35474;51.032;6.998;2022-10-23T13:02:37;18.88;69.90
52656;SHT85;35474;51.032;6.998;2022-10-23T13:05:04;18.89;69.89
52656;SHT85;35474;51.032;6.998;2022-10-23T13:07:34;18.73;70.32
52656;SHT85;35474;51.032;6.998;2022-10-23T13:10:03;18.81;70.27
52656;SHT85;35474;51.032;6.998;2022-10-23T13:12:34;18.80;70.67
52656;SHT85;35474;51.032;6.998;2022-10-23T13:22:44;18.67;71.11
52656;SHT85;35474;51.032;6.998;2022-10-23T13:25:23;18.67;71.19
52656;SHT85;35474;51.032;6.998;2022-10-23T13:30:39;18.67;71.23
52656;SHT85;35474;51.032;6.998;2022-10-23T13:33:18;18.58;71.52
52656;SHT85;35474;51.032;6.998;2022-10-23T13:35:55;18.66;71.45
52656;SHT85;35474;51.032;6.998;2022-10-23T13:40:57;18.71;71.50
52656;SHT85;35474;51.032;6.998;2022-10-23T13:43:25;18.80;71.34
52656;SHT85;35474;51.032;6.998;2022-10-23T13:45:52;18.83;71.27
52656;SHT85;35474;51.032;6.998;2022-10-23T13:48:19;18.74;71.50
52656;SHT85;35474;51.032;6.998;2022-10-23T13:50:46;18.80;71.44
52656;SHT85;35474;51.032;6.998;2022-10-23T13:53:12;18.80;71.33
52656;SHT85;35474;51.032;6.998;2022-10-23T13:55:41;18.75;71.57
52656;SHT85;35474;51.032;6.998;2022-10-23T13:58:09;18.74;71.86
52656;SHT85;35474;51.032;6.998;2022-10-23T14:00:36;18.74;71.79
52656;SHT85;35474;51.032;6.998;2022-10-23T14:03:03;18.78;71.88
52656;SHT85;35474;51.032;6.998;2022-10-23T14:05:30;18.81;71.88
52656;SHT85;35474;51.032;6.998;2022-10-23T14:07:57;18.75;71.98
52656;SHT85;35474;51.032;6.998;2022-10-23T14:10:23;18.70;72.29
52656;SHT85;35474;51.032;6.998;2022-10-23T14:12:52;18.74;72.29
52656;SHT85;35474;51.032;6.998;2022-10-23T14:15:20;18.78;72.02
52656;SHT85;35474;51.032;6.998;2022-10-23T14:17:47;18.80;72.09
52656;SHT85;35474;51.032;6.998;2022-10-23T14:20:13;18.81;71.96
52656;SHT85;35474;51.032;6.998;2022-10-23T14:22:43;18.83;71.83
52656;SHT85;35474;51.032;6.998;2022-10-23T14:25:10;18.81;72.06
52656;SHT85;35474;51.032;6.998;2022-10-23T14:27:37;18.81;72.19
52656;SHT85;35474;51.032;6.998;2022-10-23T14:30:03;18.73;72.42
52656;SHT85;35474;51.032;6.998;2022-10-23T14:32:30;18.70;72.53
52656;SHT85;35474;51.032;6.998;2022-10-23T14:34:57;18.77;72.26
52656;SHT85;35474;51.032;6.998;2022-10-23T14:37:23;18.78;72.37
52656;SHT85;35474;51.032;6.998;2022-10-23T14:39:50;18.74;72.57
52656;SHT85;35474;51.032;6.998;2022-10-23T14:42:16;18.71;72.79
52656;SHT85;35474;51.032;6.998;2022-10-23T14:44:43;18.71;72.53
52656;SHT85;35474;51.032;6.998;2022-10-23T14:47:10;18.71;72.61
52656;SHT85;35474;51.032;6.998;2022-10-23T14:49:36;18.71;72.90
52656;SHT85;35474;51.032;6.998;2022-10-23T14:52:05;18.66;73.01
52656;SHT85;35474;51.032;6.998;2022-10-23T14:54:32;18.63;73.26
52656;SHT85;35474;51.032;6.998;2022-10-23T14:57:00;18.63;73.22
52656;SHT85;35474;51.032;6.998;2022-10-23T14:59:27;18.64;73.28
52656;SHT85;35474;51.032;6.998;2022-10-23T15:01:53;18.56;73.47
52656;SHT85;35474;51.032;6.998;2022-10-23T15:04:20;18.53;73.80
52656;SHT85;35474;51.032;6.998;2022-10-23T15:06:46;18.50;73.96
52656;SHT85;35474;51.032;6.998;2022-10-23T15:09:13;18.43;74.33
52656;SHT85;35474;51.032;6.998;2022-10-23T15:11:40;18.46;74.30
52656;SHT85;35474;51.032;6.998;2022-10-23T15:14:07;18.43;74.42
52656;SHT85;35474;51.032;6.998;2022-10-23T15:16:33;18.40;74.72
52656;SHT85;35474;51.032;6.998;2022-10-23T15:19:07;18.46;74.37
52656;SHT85;35474;51.032;6.998;2022-10-23T15:21:40;18.44;74.56
52656;SHT85;35474;51.032;6.998;2022-10-23T15:24:07;18.40;74.67
52656;SHT85;35474;51.032;6.998;2022-10-23T15:26:33;18.36;74.87
52656;SHT85;35474;51.032;6.998;2022-10-23T15:29:00;18.26;75.48
52656;SHT85;35474;51.032;6.998;2022-10-23T15:33:54;17.99;76.69
52656;SHT85;35474;51.032;6.998;2022-10-23T15:36:25;18.04;76.60
52656;SHT85;35474;51.032;6.998;2022-10-23T15:38:51;18.08;76.38
52656;SHT85;35474;51.032;6.998;2022-10-23T15:41:20;18.08;76.52
52656;SHT85;35474;51.032;6.998;2022-10-23T15:43:54;18.12;76.43
52656;SHT85;35474;51.032;6.998;2022-10-23T15:46:21;18.13;76.62
52656;SHT85;35474;51.032;6.998;2022-10-23T15:48:47;18.09;76.82
52656;SHT85;35474;51.032;6.998;2022-10-23T15:51:14;18.13;76.61
52656;SHT85;35474;51.032;6.998;2022-10-23T15:53:40;18.06;76.96
52656;SHT85;35474;51.032;6.998;2022-10-23T15:56:07;17.98;77.21
52656;SHT85;35474;51.032;6.998;2022-10-23T15:58:33;17.88;77.81
52656;SHT85;35474;51.032;6.998;2022-10-23T16:01:00;17.77;78.29
52656;SHT85;35474;51.032;6.998;2022-10-23T16:03:32;17.74;78.15
52656;SHT85;35474;51.032;6.998;2022-10-23T16:06:02;17.78;78.23
52656;SHT85;35474;51.032;6.998;2022-10-23T16:08:29;17.68;78.66
52656;SHT85;35474;51.032;6.998;2022-10-23T16:10:56;17.59;79.03
52656;SHT85;35474;51.032;6.998;2022-10-23T16:13:25;17.48;79.80
52656;SHT85;35474;51.032;6.998;2022-10-23T16:15:51;17.51;79.58
52656;SHT85;35474;51.032;6.998;2022-10-23T16:18:19;17.50;80.21
52656;SHT85;35474;51.032;6.998;2022-10-23T16:20:49;17.07;82.86
52656;SHT85;35474;51.032;6.998;2022-10-23T16:23:16;16.86;84.03
52656;SHT85;35474;51.032;6.998;2022-10-23T16:25:43;16.85;84.35
52656;SHT85;35474;51.032;6.998;2022-10-23T16:28:11;16.80;85.65
52656;SHT85;35474;51.032;6.998;2022-10-23T16:30:40;16.79;85.72
52656;SHT85;35474;51.032;6.998;2022-10-23T16:33:08;16.75;86.25
52656;SHT85;35474;51.032;6.998;2022-10-23T16:35:35;16.89;85.70
52656;SHT85;35474;51.032;6.998;2022-10-23T16:38:02;16.85;86.55
52656;SHT85;35474;51.032;6.998;2022-10-23T16:40:29;16.76;87.02
52656;SHT85;35474;51.032;6.998;2022-10-23T16:42:57;16.65;87.38
52656;SHT85;35474;51.032;6.998;2022-10-23T16:45:23;16.62;88.33
52656;SHT85;35474;51.032;6.998;2022-10-23T16:47:50;16.22;91.04
52656;SHT85;35474;51.032;6.998;2022-10-23T16:50:16;16.04;92.23
52656;SHT85;35474;51.032;6.998;2022-10-23T16:52:43;16.00;92.90
52656;SHT85;35474;51.032;6.998;2022-10-23T16:55:10;15.91;93.39
52656;SHT85;35474;51.032;6.998;2022-10-23T16:57:36;15.91;93.92
52656;SHT85;35474;51.032;6.998;2022-10-23T17:00:03;15.85;94.21
52656;SHT85;35474;51.032;6.998;2022-10-23T17:02:31;15.85;94.75
52656;SHT85;35474;51.032;6.998;2022-10-23T17:04:58;15.80;95.04
52656;SHT85;35474;51.032;6.998;2022-10-23T17:07:24;15.83;95.21
52656;SHT85;35474;51.032;6.998;2022-10-23T17:09:51;15.85;94.94
52656;SHT85;35474;51.032;6.998;2022-10-23T17:12:17;15.87;94.29
52656;SHT85;35474;51.032;6.998;2022-10-23T17:14:44;15.85;94.06
52656;SHT85;35474;51.032;6.998;2022-10-23T17:17:10;15.87;94.25
52656;SHT85;35474;51.032;6.998;2022-10-23T17:19:37;15.91;94.37
52656;SHT85;35474;51.032;6.998;2022-10-23T17:22:11;15.89;94.18
52656;SHT85;35474;51.032;6.998;2022-10-23T17:24:38;15.93;94.16
52656;SHT85;35474;51.032;6.998;2022-10-23T17:27:05;15.94;93.95
52656;SHT85;35474;51.032;6.998;2022-10-23T17:29:34;15.96;93.83
52656;SHT85;35474;51.032;6.998;2022-10-23T17:32:01;15.97;93.70
52656;SHT85;35474;51.032;6.998;2022-10-23T17:34:27;15.97;93.97
52656;SHT85;35474;51.032;6.998;2022-10-23T17:36:54;15.96;94.05
52656;SHT85;35474;51.032;6.998;2022-10-23T17:39:22;15.96;93.90
52656;SHT85;35474;51.032;6.998;2022-10-23T17:41:51;15.96;94.04